sensor_id;sensor_type;location;lat;lon;timestamp;pressure;altitude;pressure_sealevel;temperature
47484;BMP280;54076;50.322;18.650;2023-05-21T00:04:29;98263.88;;;12.05
47484;BMP280;54076;50.322;18.650;2023-05-21T00:09:31;98262.61;;;12.04
47484;BMP280;54076;50.322;18.650;2023-05-21T00:14:33;98261.20;;;11.99
47484;BMP280;54076;50.322;18.650;2023-05-21T00:19:34;98256.83;;;12.04
47484;BMP280;54076;50.322;18.650;2023-05-21T00:24:35;98247.65;;;12.11
47484;BMP280;54076;50.322;18.650;2023-05-21T00:29:36;98245.08;;;12.04
47484;BMP280;54076;50.322;18.650;2023-05-21T00:34:37;98242.93;;;12.12
47484;BMP280;54076;50.322;18.650;2023-05-21T00:39:38;98236.14;;;12.07
47484;BMP280;54076;50.322;18.650;2023-05-21T00:44:39;98234.88;;;12.06
47484;BMP280;54076;50.322;18.650;2023-05-21T00:49:40;98229.13;;;12.09
47484;BMP280;54076;50.322;18.650;2023-05-21T00:54:41;98224.55;;;12.17
47484;BMP280;54076;50.322;18.650;2023-05-21T00:59:43;98220.77;;;12.24
47484;BMP280;54076;50.322;18.650;2023-05-21T01:04:44;98214.20;;;12.16
47484;BMP280;54076;50.322;18.650;2023-05-21T01:09:45;98211.72;;;12.15
47484;BMP280;54076;50.322;18.650;2023-05-21T01:14:47;98204.23;;;12.13
47484;BMP280;54076;50.322;18.650;2023-05-21T01:19:49;98206.27;;;12.16
47484;BMP280;54076;50.322;18.650;2023-05-21T01:24:53;98208.30;;;12.15
47484;BMP280;54076;50.322;18.650;2023-05-21T01:29:55;98203.65;;;12.15
47484;BMP280;54076;50.322;18.650;2023-05-21T01:35:09;98200.33;;;12.15
47484;BMP280;54076;50.322;18.650;2023-05-21T01:40:18;98198.52;;;12.26
47484;BMP280;54076;50.322;18.650;2023-05-21T01:45:23;98189.41;;;12.11
47484;BMP280;54076;50.322;18.650;2023-05-21T01:50:25;98185.12;;;12.03
47484;BMP280;54076;50.322;18.650;2023-05-21T01:55:26;98185.09;;;12.11
47484;BMP280;54076;50.322;18.650;2023-05-21T02:00:27;98179.54;;;11.97
47484;BMP280;54076;50.322;18.650;2023-05-21T02:05:29;98174.92;;;11.98
47484;BMP280;54076;50.322;18.650;2023-05-21T02:10:30;98174.98;;;11.84
47484;BMP280;54076;50.322;18.650;2023-05-21T02:15:31;98171.98;;;11.88
47484;BMP280;54076;50.322;18.650;2023-05-21T02:20:34;98171.43;;;11.92
47484;BMP280;54076;50.322;18.650;2023-05-21T02:25:35;98168.23;;;11.80
47484;BMP280;54076;50.322;18.650;2023-05-21T02:30:35;98161.11;;;11.77
47484;BMP280;54076;50.322;18.650;2023-05-21T02:35:36;98157.47;;;11.87
47484;BMP280;54076;50.322;18.650;2023-05-21T02:40:38;98156.02;;;11.83
47484;BMP280;54076;50.322;18.650;2023-05-21T02:45:39;98155.31;;;11.80
47484;BMP280;54076;50.322;18.650;2023-05-21T02:50:40;98153.08;;;11.79
47484;BMP280;54076;50.322;18.650;2023-05-21T02:55:41;98151.84;;;11.70
47484;BMP280;54076;50.322;18.650;2023-05-21T03:00:42;98146.88;;;11.81
47484;BMP280;54076;50.322;18.650;2023-05-21T03:05:43;98145.73;;;11.77
47484;BMP280;54076;50.322;18.650;2023-05-21T03:10:45;98145.49;;;11.66
47484;BMP280;54076;50.322;18.650;2023-05-21T03:15:46;98137.95;;;11.78
47484;BMP280;54076;50.322;18.650;2023-05-21T03:20:48;98135.36;;;11.84
47484;BMP280;54076;50.322;18.650;2023-05-21T03:25:49;98138.48;;;11.94
47484;BMP280;54076;50.322;18.650;2023-05-21T03:30:50;98141.15;;;11.91
47484;BMP280;54076;50.322;18.650;2023-05-21T03:35:54;98140.65;;;12.00
47484;BMP280;54076;50.322;18.650;2023-05-21T03:40:55;98143.95;;;11.99
47484;BMP280;54076;50.322;18.650;2023-05-21T03:45:56;98144.85;;;12.01
47484;BMP280;54076;50.322;18.650;2023-05-21T03:50:57;98146.33;;;12.01
47484;BMP280;54076;50.322;18.650;2023-05-21T03:55:58;98148.27;;;12.06
47484;BMP280;54076;50.322;18.650;2023-05-21T04:00:59;98144.23;;;12.05
47484;BMP280;54076;50.322;18.650;2023-05-21T04:06:03;98148.94;;;12.13
47484;BMP280;54076;50.322;18.650;2023-05-21T04:11:04;98149.65;;;12.13
47484;BMP280;54076;50.322;18.650;2023-05-21T04:16:05;98150.20;;;12.22
47484;BMP280;54076;50.322;18.650;2023-05-21T04:21:08;98158.83;;;12.29
47484;BMP280;54076;50.322;18.650;2023-05-21T04:26:09;98158.07;;;12.36
47484;BMP280;54076;50.322;18.650;2023-05-21T04:31:12;98163.96;;;12.40
47484;BMP280;54076;50.322;18.650;2023-05-21T04:36:13;98168.90;;;12.52
47484;BMP280;54076;50.322;18.650;2023-05-21T04:41:17;98174.26;;;12.66
47484;BMP280;54076;50.322;18.650;2023-05-21T04:46:18;98178.70;;;12.67
47484;BMP280;54076;50.322;18.650;2023-05-21T04:51:20;98186.62;;;12.71
47484;BMP280;54076;50.322;18.650;2023-05-21T04:56:23;98188.23;;;12.70
47484;BMP280;54076;50.322;18.650;2023-05-21T05:01:27;98187.31;;;12.65
47484;BMP280;54076;50.322;18.650;2023-05-21T05:06:29;98185.51;;;12.54
47484;BMP280;54076;50.322;18.650;2023-05-21T05:11:30;98188.63;;;12.71
47484;BMP280;54076;50.322;18.650;2023-05-21T05:16:32;98188.33;;;12.88
47484;BMP280;54076;50.322;18.650;2023-05-21T05:21:33;98192.08;;;13.06
47484;BMP280;54076;50.322;18.650;2023-05-21T05:26:34;98190.63;;;13.18
47484;BMP280;54076;50.322;18.650;2023-05-21T05:31:36;98190.46;;;13.25
47484;BMP280;54076;50.322;18.650;2023-05-21T05:36:37;98187.09;;;13.39
47484;BMP280;54076;50.322;18.650;2023-05-21T05:41:38;98179.77;;;13.42
47484;BMP280;54076;50.322;18.650;2023-05-21T05:46:38;98183.75;;;13.37
47484;BMP280;54076;50.322;18.650;2023-05-21T05:51:40;98186.63;;;13.56
47484;BMP280;54076;50.322;18.650;2023-05-21T05:56:41;98195.39;;;13.89
47484;BMP280;54076;50.322;18.650;2023-05-21T06:01:42;98196.92;;;13.91
47484;BMP280;54076;50.322;18.650;2023-05-21T06:06:43;98194.34;;;14.11
47484;BMP280;54076;50.322;18.650;2023-05-21T06:11:44;98193.90;;;14.20
47484;BMP280;54076;50.322;18.650;2023-05-21T06:16:45;98188.36;;;14.23
47484;BMP280;54076;50.322;18.650;2023-05-21T06:21:47;98186.48;;;14.32
47484;BMP280;54076;50.322;18.650;2023-05-21T06:26:48;98186.10;;;14.32
47484;BMP280;54076;50.322;18.650;2023-05-21T06:31:49;98184.30;;;14.52
47484;BMP280;54076;50.322;18.650;2023-05-21T06:36:50;98173.63;;;14.86
47484;BMP280;54076;50.322;18.650;2023-05-21T06:41:51;98173.68;;;15.04
47484;BMP280;54076;50.322;18.650;2023-05-21T06:46:52;98168.99;;;15.10
47484;BMP280;54076;50.322;18.650;2023-05-21T06:51:53;98164.12;;;15.51
47484;BMP280;54076;50.322;18.650;2023-05-21T06:56:54;98160.66;;;15.59
47484;BMP280;54076;50.322;18.650;2023-05-21T07:01:56;98160.98;;;15.70
47484;BMP280;54076;50.322;18.650;2023-05-21T07:06:57;98150.71;;;15.75
47484;BMP280;54076;50.322;18.650;2023-05-21T07:11:58;98150.75;;;15.72
47484;BMP280;54076;50.322;18.650;2023-05-21T07:16:59;98148.54;;;15.76
47484;BMP280;54076;50.322;18.650;2023-05-21T07:22:00;98138.55;;;15.85
47484;BMP280;54076;50.322;18.650;2023-05-21T07:27:01;98147.18;;;16.18
47484;BMP280;54076;50.322;18.650;2023-05-21T07:32:03;98142.55;;;16.31
47484;BMP280;54076;50.322;18.650;2023-05-21T07:37:04;98139.67;;;16.24
47484;BMP280;54076;50.322;18.650;2023-05-21T07:42:05;98144.60;;;16.32
47484;BMP280;54076;50.322;18.650;2023-05-21T07:47:06;98147.08;;;16.40
47484;BMP280;54076;50.322;18.650;2023-05-21T07:52:07;98142.23;;;16.68
47484;BMP280;54076;50.322;18.650;2023-05-21T07:57:09;98136.66;;;16.80
47484;BMP280;54076;50.322;18.650;2023-05-21T08:02:10;98135.63;;;17.13
47484;BMP280;54076;50.322;18.650;2023-05-21T08:07:11;98137.02;;;17.08
47484;BMP280;54076;50.322;18.650;2023-05-21T08:12:12;98141.16;;;17.31
47484;BMP280;54076;50.322;18.650;2023-05-21T08:17:16;98137.14;;;17.33
47484;BMP280;54076;50.322;18.650;2023-05-21T08:22:17;98132.64;;;17.66
47484;BMP280;54076;50.322;18.650;2023-05-21T08:27:18;98129.41;;;17.59
47484;BMP280;54076;50.322;18.650;2023-05-21T08:32:19;98134.27;;;17.80
47484;BMP280;54076;50.322;18.650;2023-05-21T08:37:20;98122.74;;;18.11
47484;BMP280;54076;50.322;18.650;2023-05-21T08:47:34;98123.96;;;18.41
47484;BMP280;54076;50.322;18.650;2023-05-21T08:52:36;98126.84;;;18.41
47484;BMP280;54076;50.322;18.650;2023-05-21T08:57:41;98125.59;;;18.46
47484;BMP280;54076;50.322;18.650;2023-05-21T09:02:42;98118.86;;;18.65
47484;BMP280;54076;50.322;18.650;2023-05-21T09:08:06;98116.79;;;18.87
47484;BMP280;54076;50.322;18.650;2023-05-21T09:13:09;98120.48;;;19.15
47484;BMP280;54076;50.322;18.650;2023-05-21T09:18:10;98121.31;;;19.32
47484;BMP280;54076;50.322;18.650;2023-05-21T09:23:16;98109.91;;;19.55
47484;BMP280;54076;50.322;18.650;2023-05-21T09:28:18;98114.49;;;19.72
47484;BMP280;54076;50.322;18.650;2023-05-21T09:33:27;98109.24;;;20.03
47484;BMP280;54076;50.322;18.650;2023-05-21T09:38:32;98107.52;;;20.01
47484;BMP280;54076;50.322;18.650;2023-05-21T09:43:33;98108.75;;;20.32
47484;BMP280;54076;50.322;18.650;2023-05-21T09:48:41;98107.58;;;20.31
47484;BMP280;54076;50.322;18.650;2023-05-21T09:53:54;98109.16;;;20.59
47484;BMP280;54076;50.322;18.650;2023-05-21T09:59:00;98104.00;;;20.77
47484;BMP280;54076;50.322;18.650;2023-05-21T10:04:06;98114.17;;;21.19
47484;BMP280;54076;50.322;18.650;2023-05-21T10:09:10;98115.66;;;21.52
47484;BMP280;54076;50.322;18.650;2023-05-21T10:14:20;98116.24;;;22.21
47484;BMP280;54076;50.322;18.650;2023-05-21T10:19:23;98114.50;;;22.38
47484;BMP280;54076;50.322;18.650;2023-05-21T10:24:25;98104.86;;;22.41
47484;BMP280;54076;50.322;18.650;2023-05-21T10:29:27;98127.55;;;23.00
47484;BMP280;54076;50.322;18.650;2023-05-21T10:34:29;98126.30;;;23.41
47484;BMP280;54076;50.322;18.650;2023-05-21T10:39:32;98127.41;;;23.31
47484;BMP280;54076;50.322;18.650;2023-05-21T10:45:10;98122.88;;;23.51
47484;BMP280;54076;50.322;18.650;2023-05-21T10:56:21;98116.52;;;24.13
47484;BMP280;54076;50.322;18.650;2023-05-21T11:01:27;98117.02;;;24.57
47484;BMP280;54076;50.322;18.650;2023-05-21T11:06:29;98116.92;;;25.26
47484;BMP280;54076;50.322;18.650;2023-05-21T11:11:50;98118.80;;;24.91
47484;BMP280;54076;50.322;18.650;2023-05-21T11:16:51;98118.26;;;25.43
47484;BMP280;54076;50.322;18.650;2023-05-21T11:21:54;98125.59;;;26.00
47484;BMP280;54076;50.322;18.650;2023-05-21T11:31:59;98121.98;;;25.75
47484;BMP280;54076;50.322;18.650;2023-05-21T11:42:32;98120.64;;;26.14
47484;BMP280;54076;50.322;18.650;2023-05-21T11:47:33;98117.95;;;26.16
47484;BMP280;54076;50.322;18.650;2023-05-21T11:52:34;98115.23;;;26.64
47484;BMP280;54076;50.322;18.650;2023-05-21T11:57:36;98114.95;;;26.34
47484;BMP280;54076;50.322;18.650;2023-05-21T12:02:37;98116.50;;;26.48
47484;BMP280;54076;50.322;18.650;2023-05-21T12:07:39;98115.84;;;26.80
47484;BMP280;54076;50.322;18.650;2023-05-21T12:12:40;98115.49;;;27.21
47484;BMP280;54076;50.322;18.650;2023-05-21T12:17:41;98110.41;;;27.00
47484;BMP280;54076;50.322;18.650;2023-05-21T12:22:43;98105.76;;;27.07
47484;BMP280;54076;50.322;18.650;2023-05-21T12:27:45;98105.69;;;27.38
47484;BMP280;54076;50.322;18.650;2023-05-21T12:32:47;98096.47;;;26.92
47484;BMP280;54076;50.322;18.650;2023-05-21T12:37:49;98101.38;;;27.37
47484;BMP280;54076;50.322;18.650;2023-05-21T12:42:52;98090.79;;;26.72
47484;BMP280;54076;50.322;18.650;2023-05-21T12:47:53;98088.62;;;27.08
47484;BMP280;54076;50.322;18.650;2023-05-21T12:52:57;98086.24;;;26.97
47484;BMP280;54076;50.322;18.650;2023-05-21T12:58:01;98079.25;;;27.14
47484;BMP280;54076;50.322;18.650;2023-05-21T13:03:04;98076.92;;;27.00
47484;BMP280;54076;50.322;18.650;2023-05-21T13:08:05;98070.00;;;26.26
47484;BMP280;54076;50.322;18.650;2023-05-21T13:13:06;98070.30;;;26.28
47484;BMP280;54076;50.322;18.650;2023-05-21T13:18:08;98063.09;;;25.84
47484;BMP280;54076;50.322;18.650;2023-05-21T13:23:09;98055.02;;;25.16
47484;BMP280;54076;50.322;18.650;2023-05-21T13:28:10;98043.79;;;24.38
47484;BMP280;54076;50.322;18.650;2023-05-21T13:33:14;98040.79;;;24.27
47484;BMP280;54076;50.322;18.650;2023-05-21T13:38:16;98028.58;;;23.93
47484;BMP280;54076;50.322;18.650;2023-05-21T13:43:17;98033.16;;;23.03
47484;BMP280;54076;50.322;18.650;2023-05-21T13:48:18;98029.23;;;23.23
47484;BMP280;54076;50.322;18.650;2023-05-21T13:53:20;98028.01;;;22.94
47484;BMP280;54076;50.322;18.650;2023-05-21T13:58:21;98026.53;;;22.77
47484;BMP280;54076;50.322;18.650;2023-05-21T14:03:22;98016.86;;;22.91
47484;BMP280;54076;50.322;18.650;2023-05-21T14:08:23;98022.94;;;23.06
47484;BMP280;54076;50.322;18.650;2023-05-21T14:13:25;98020.14;;;22.61
47484;BMP280;54076;50.322;18.650;2023-05-21T14:18:26;98017.75;;;22.89
47484;BMP280;54076;50.322;18.650;2023-05-21T14:23:27;98009.41;;;22.61
47484;BMP280;54076;50.322;18.650;2023-05-21T14:28:28;98012.98;;;22.89
47484;BMP280;54076;50.322;18.650;2023-05-21T14:33:30;98014.83;;;22.49
47484;BMP280;54076;50.322;18.650;2023-05-21T14:38:32;98020.14;;;22.98
47484;BMP280;54076;50.322;18.650;2023-05-21T14:43:33;98020.59;;;23.21
47484;BMP280;54076;50.322;18.650;2023-05-21T14:48:34;98019.68;;;22.94
47484;BMP280;54076;50.322;18.650;2023-05-21T14:53:35;98022.97;;;22.82
47484;BMP280;54076;50.322;18.650;2023-05-21T14:58:36;98029.35;;;23.05
47484;BMP280;54076;50.322;18.650;2023-05-21T15:03:37;98029.17;;;23.18
47484;BMP280;54076;50.322;18.650;2023-05-21T15:08:38;98029.90;;;23.39
47484;BMP280;54076;50.322;18.650;2023-05-21T15:13:39;98029.80;;;23.47
47484;BMP280;54076;50.322;18.650;2023-05-21T15:18:40;98033.56;;;23.37
47484;BMP280;54076;50.322;18.650;2023-05-21T15:23:41;98039.77;;;24.14
47484;BMP280;54076;50.322;18.650;2023-05-21T15:28:42;98039.43;;;24.75
47484;BMP280;54076;50.322;18.650;2023-05-21T15:33:43;98042.11;;;24.96
47484;BMP280;54076;50.322;18.650;2023-05-21T15:38:44;98037.48;;;24.35
47484;BMP280;54076;50.322;18.650;2023-05-21T15:43:45;98033.98;;;23.93
47484;BMP280;54076;50.322;18.650;2023-05-21T15:48:46;98040.53;;;24.34
47484;BMP280;54076;50.322;18.650;2023-05-21T15:53:47;98048.56;;;25.68
47484;BMP280;54076;50.322;18.650;2023-05-21T15:58:48;98046.20;;;26.30
47484;BMP280;54076;50.322;18.650;2023-05-21T16:03:49;98051.69;;;26.95
47484;BMP280;54076;50.322;18.650;2023-05-21T16:08:50;98055.30;;;27.00
47484;BMP280;54076;50.322;18.650;2023-05-21T16:13:52;98045.72;;;25.29
47484;BMP280;54076;50.322;18.650;2023-05-21T16:18:53;98045.06;;;24.67
47484;BMP280;54076;50.322;18.650;2023-05-21T16:23:54;98058.17;;;25.82
47484;BMP280;54076;50.322;18.650;2023-05-21T16:28:55;98057.63;;;26.07
47484;BMP280;54076;50.322;18.650;2023-05-21T16:33:57;98059.84;;;26.30
47484;BMP280;54076;50.322;18.650;2023-05-21T16:38:57;98061.52;;;26.69
47484;BMP280;54076;50.322;18.650;2023-05-21T16:43:58;98064.92;;;26.41
47484;BMP280;54076;50.322;18.650;2023-05-21T16:48:59;98064.30;;;27.08
47484;BMP280;54076;50.322;18.650;2023-05-21T16:54:01;98054.13;;;25.80
47484;BMP280;54076;50.322;18.650;2023-05-21T16:59:03;98051.91;;;25.78
47484;BMP280;54076;50.322;18.650;2023-05-21T17:04:04;98042.77;;;24.72
47484;BMP280;54076;50.322;18.650;2023-05-21T17:09:05;98045.02;;;24.66
47484;BMP280;54076;50.322;18.650;2023-05-21T17:14:06;98045.60;;;24.17
47484;BMP280;54076;50.322;18.650;2023-05-21T17:19:07;98042.79;;;24.16
47484;BMP280;54076;50.322;18.650;2023-05-21T17:24:08;98044.70;;;23.53
47484;BMP280;54076;50.322;18.650;2023-05-21T17:29:10;98040.62;;;22.23
47484;BMP280;54076;50.322;18.650;2023-05-21T17:34:11;98035.57;;;21.57
47484;BMP280;54076;50.322;18.650;2023-05-21T17:39:12;98037.46;;;21.37
47484;BMP280;54076;50.322;18.650;2023-05-21T17:44:14;98034.94;;;20.87
47484;BMP280;54076;50.322;18.650;2023-05-21T17:49:17;98040.31;;;20.57
47484;BMP280;54076;50.322;18.650;2023-05-21T17:54:18;98036.57;;;19.93
47484;BMP280;54076;50.322;18.650;2023-05-21T17:59:20;98035.79;;;19.32
47484;BMP280;54076;50.322;18.650;2023-05-21T18:04:22;98040.45;;;18.88
47484;BMP280;54076;50.322;18.650;2023-05-21T18:09:23;98040.13;;;19.05
47484;BMP280;54076;50.322;18.650;2023-05-21T18:14:24;98034.25;;;18.56
47484;BMP280;54076;50.322;18.650;2023-05-21T18:19:24;98026.52;;;18.05
47484;BMP280;54076;50.322;18.650;2023-05-21T18:24:26;98025.86;;;17.62
47484;BMP280;54076;50.322;18.650;2023-05-21T18:29:27;98023.29;;;17.27
47484;BMP280;54076;50.322;18.650;2023-05-21T18:34:28;98023.78;;;17.07
47484;BMP280;54076;50.322;18.650;2023-05-21T18:39:29;98023.85;;;16.97
47484;BMP280;54076;50.322;18.650;2023-05-21T18:44:30;98026.58;;;16.77
47484;BMP280;54076;50.322;18.650;2023-05-21T18:49:32;98031.30;;;16.47
47484;BMP280;54076;50.322;18.650;2023-05-21T18:54:35;98032.00;;;16.38
47484;BMP280;54076;50.322;18.650;2023-05-21T18:59:36;98036.52;;;16.05
47484;BMP280;54076;50.322;18.650;2023-05-21T19:04:38;98039.33;;;15.76
47484;BMP280;54076;50.322;18.650;2023-05-21T19:09:39;98045.42;;;15.70
47484;BMP280;54076;50.322;18.650;2023-05-21T19:14:40;98047.27;;;15.57
47484;BMP280;54076;50.322;18.650;2023-05-21T19:19:44;98046.56;;;15.39
47484;BMP280;54076;50.322;18.650;2023-05-21T19:24:45;98042.88;;;15.09
47484;BMP280;54076;50.322;18.650;2023-05-21T19:29:48;98051.41;;;14.87
47484;BMP280;54076;50.322;18.650;2023-05-21T19:34:49;98059.31;;;14.70
47484;BMP280;54076;50.322;18.650;2023-05-21T19:39:51;98054.17;;;14.73
47484;BMP280;54076;50.322;18.650;2023-05-21T19:44:52;98056.48;;;14.54
47484;BMP280;54076;50.322;18.650;2023-05-21T19:49:53;98059.84;;;14.46
47484;BMP280;54076;50.322;18.650;2023-05-21T19:54:56;98059.21;;;14.36
47484;BMP280;54076;50.322;18.650;2023-05-21T20:00:04;98059.30;;;14.45
47484;BMP280;54076;50.322;18.650;2023-05-21T20:05:08;98054.27;;;14.31
47484;BMP280;54076;50.322;18.650;2023-05-21T20:10:09;98051.24;;;14.36
47484;BMP280;54076;50.322;18.650;2023-05-21T20:15:11;98039.87;;;13.97
47484;BMP280;54076;50.322;18.650;2023-05-21T20:20:13;98036.77;;;13.95
47484;BMP280;54076;50.322;18.650;2023-05-21T20:25:14;98035.39;;;13.95
47484;BMP280;54076;50.322;18.650;2023-05-21T20:30:15;98038.29;;;13.88
47484;BMP280;54076;50.322;18.650;2023-05-21T20:35:16;98031.17;;;14.00
47484;BMP280;54076;50.322;18.650;2023-05-21T20:40:17;98031.91;;;13.92
47484;BMP280;54076;50.322;18.650;2023-05-21T20:45:19;98032.91;;;13.91
47484;BMP280;54076;50.322;18.650;2023-05-21T20:50:20;98037.57;;;13.63
47484;BMP280;54076;50.322;18.650;2023-05-21T20:55:25;98036.87;;;13.54
47484;BMP280;54076;50.322;18.650;2023-05-21T21:00:26;98035.86;;;13.57
47484;BMP280;54076;50.322;18.650;2023-05-21T21:05:27;98033.90;;;13.52
47484;BMP280;54076;50.322;18.650;2023-05-21T21:10:28;98031.58;;;13.48
47484;BMP280;54076;50.322;18.650;2023-05-21T21:15:29;98029.62;;;13.44
47484;BMP280;54076;50.322;18.650;2023-05-21T21:20:30;98030.23;;;13.39
47484;BMP280;54076;50.322;18.650;2023-05-21T21:25:31;98031.68;;;13.26
47484;BMP280;54076;50.322;18.650;2023-05-21T21:30:32;98033.45;;;13.26
47484;BMP280;54076;50.322;18.650;2023-05-21T21:35:33;98037.84;;;13.28
47484;BMP280;54076;50.322;18.650;2023-05-21T21:40:35;98033.64;;;13.24
47484;BMP280;54076;50.322;18.650;2023-05-21T21:45:36;98033.95;;;13.27
47484;BMP280;54076;50.322;18.650;2023-05-21T21:50:36;98032.54;;;12.91
47484;BMP280;54076;50.322;18.650;2023-05-21T21:55:37;98034.02;;;12.99
47484;BMP280;54076;50.322;18.650;2023-05-21T22:00:38;98035.03;;;12.96
47484;BMP280;54076;50.322;18.650;2023-05-21T22:05:40;98036.82;;;12.91
47484;BMP280;54076;50.322;18.650;2023-05-21T22:10:42;98039.18;;;12.92
47484;BMP280;54076;50.322;18.650;2023-05-21T22:15:43;98033.52;;;12.65
47484;BMP280;54076;50.322;18.650;2023-05-21T22:20:44;98028.84;;;12.57
47484;BMP280;54076;50.322;18.650;2023-05-21T22:25:48;98018.72;;;12.53
47484;BMP280;54076;50.322;18.650;2023-05-21T22:30:49;98017.98;;;12.47
47484;BMP280;54076;50.322;18.650;2023-05-21T22:35:50;98014.38;;;12.56
47484;BMP280;54076;50.322;18.650;2023-05-21T22:40:51;98013.34;;;12.47
47484;BMP280;54076;50.322;18.650;2023-05-21T22:45:52;98014.88;;;12.17
47484;BMP280;54076;50.322;18.650;2023-05-21T22:50:53;98014.06;;;12.03
47484;BMP280;54076;50.322;18.650;2023-05-21T22:55:54;98020.56;;;12.19
47484;BMP280;54076;50.322;18.650;2023-05-21T23:00:55;98021.38;;;12.13
47484;BMP280;54076;50.322;18.650;2023-05-21T23:05:56;98021.08;;;12.01
47484;BMP280;54076;50.322;18.650;2023-05-21T23:10:57;98020.14;;;11.70
47484;BMP280;54076;50.322;18.650;2023-05-21T23:15:58;98017.43;;;11.74
47484;BMP280;54076;50.322;18.650;2023-05-21T23:21:00;98020.61;;;11.69
47484;BMP280;54076;50.322;18.650;2023-05-21T23:26:01;98016.42;;;11.65
47484;BMP280;54076;50.322;18.650;2023-05-21T23:31:02;98020.23;;;11.61
47484;BMP280;54076;50.322;18.650;2023-05-21T23:36:03;98016.15;;;11.53
47484;BMP280;54076;50.322;18.650;2023-05-21T23:41:04;98014.66;;;11.34
47484;BMP280;54076;50.322;18.650;2023-05-21T23:46:06;98016.98;;;11.28
47484;BMP280;54076;50.322;18.650;2023-05-21T23:51:07;98009.44;;;11.38
47484;BMP280;54076;50.322;18.650;2023-05-21T23:56:08;98006.41;;;11.17
